Grand Junction, CO

12:34 AM MDT on July 01, 2015 (GMT -0600)
Ptarmigan Ridge North | | Change Station
CLOSE
Current Station
Personal Weather Station
Location: Grand Junction, CO
Elevation: 4744 ft
Nearby Weather Stations

Elev 4744 ft 39.10 °N, 108.55 °W | Updated 16 seconds ago

Clear
Clear
74.1 °F
Feels Like 77 °F
N
0.0
Wind Variable Wind from NW
Gusts 0.0 mph

Today
High -- | Low -- °F
--% Chance of Precip.
Yesterday
High -- | Low -- °F
Precip. -- in
5:51 AM 8:44 PM
Waxing Gibbous, 99% visible
Pressure 29.79 in
Visibility 10.0 miles
Clouds Clear
Heat Index 77 °F
Dew Point 53 °F
Humidity 48%
Rainfall 0.00 in
Snow Depth Not available.
UV 0.0 out of 12
Pollen 5.90 out of 12
Air Quality Not available.
Flu Activity Not available.
METAR KGJT 010553Z AUTO 06003KT 10SM CLR 24/06 A3004 RMK AO2 SLP088 T02440061 10333 20239 58001

More Conditions Fewer Conditions

Pressure 29.79 in
Visibility 10.0 miles
Clouds Clear
Heat Index 77 °F
Dew Point 53 °F
Humidity 48%
Rainfall 0.00 in
Snow Depth Not available.
UV 0.0 out of 12
Pollen 5.90 out of 12
Air Quality Not available.
Flu Activity Not available.
METAR KGJT 010553Z AUTO 06003KT 10SM CLR 24/06 A3004 RMK AO2 SLP088 T02440061 10333 20239 58001

More Conditions Fewer Conditions

10-Day Weather Forecast

×

Almanac

Astronomy

Jul. 01, 2015 Rise Set
Actual Time
Civil Twilight
Nautical Twilight
Astronomical Twilight
Moon
Length of Visible Light
Length of Day
Tomorrow will be .
, % of the Moon is Illuminated

Today's Extremes

State Highs State Lows

Community

WunderPhotos

Upload Photos

1,834,158 photos uploaded!

WunderBlogs® & News

Nearby

Air Quality

  Air Quality AQ Index Pollutant
Not available.

Snow Depth

Station Depth Elevation

Earthquake Activity

City Distance Mag. Time & Date
Minimum magnitude displayed is 2.5.

Coastal Water Temperatures

Place Temperature

Stations

Nearby Weather Stations

Station Location Temp. Windchill Dew Point Humidity Wind Precip. Elev Updated Type